createdAt,value
2022-08-18T00:00:20.405Z,25.74
2022-08-18T00:03:00.467Z,25.75
2022-08-18T00:05:28.430Z,25.60
2022-08-18T00:07:59.114Z,25.33
2022-08-18T00:10:26.668Z,25.10
2022-08-18T00:12:58.660Z,24.93
2022-08-18T00:15:28.506Z,24.86
2022-08-18T00:17:55.329Z,24.95
2022-08-18T00:20:24.678Z,25.04
2022-08-18T00:22:53.211Z,25.08
2022-08-18T00:25:21.196Z,25.13
2022-08-18T00:27:48.582Z,25.15
2022-08-18T00:30:20.201Z,25.26
2022-08-18T00:32:56.531Z,25.34
2022-08-18T00:35:29.035Z,25.38
2022-08-18T00:37:59.628Z,25.38
2022-08-18T00:40:37.713Z,25.42
2022-08-18T00:43:08.497Z,25.39
2022-08-18T00:45:39.343Z,25.34
2022-08-18T00:48:09.241Z,25.33
2022-08-18T00:50:56.432Z,25.24
2022-08-18T00:53:35.893Z,25.23
2022-08-18T00:56:13.018Z,25.13
2022-08-18T00:58:49.104Z,24.98
2022-08-18T01:01:21.260Z,24.96
2022-08-18T01:03:53.894Z,25.01
2022-08-18T01:06:32.338Z,25.08
2022-08-18T01:09:00.253Z,25.23
2022-08-18T01:11:28.592Z,25.21
2022-08-18T01:13:56.074Z,25.24
2022-08-18T01:16:53.819Z,25.24
2022-08-18T01:19:45.035Z,25.18
2022-08-18T01:22:27.228Z,25.22
2022-08-18T01:25:17.172Z,25.17
2022-08-18T01:27:44.672Z,25.17
2022-08-18T01:30:17.321Z,25.17
2022-08-18T01:32:47.536Z,25.24
2022-08-18T01:35:17.774Z,25.29
2022-08-18T01:37:44.659Z,25.29
2022-08-18T01:41:21.349Z,25.22
2022-08-18T01:43:04.326Z,25.17
2022-08-18T01:45:34.543Z,25.16
2022-08-18T01:48:01.704Z,25.21
2022-08-18T01:50:30.212Z,25.17
2022-08-18T01:52:57.042Z,25.24
2022-08-18T01:55:24.953Z,25.35
2022-08-18T01:57:51.885Z,25.43
2022-08-18T02:00:19.187Z,25.46
2022-08-18T02:02:58.151Z,25.42
2022-08-18T02:05:43.783Z,25.46
2022-08-18T02:08:12.467Z,25.45
2022-08-18T02:10:40.372Z,25.44
2022-08-18T02:13:08.358Z,25.43
2022-08-18T02:15:35.586Z,25.39
2022-08-18T02:18:02.408Z,25.40
2022-08-18T02:20:29.271Z,25.45
2022-08-18T02:22:58.509Z,25.48
2022-08-18T02:25:25.327Z,25.53
2022-08-18T02:27:53.289Z,25.52
2022-08-18T02:30:20.486Z,25.53
2022-08-18T02:32:47.455Z,25.53
2022-08-18T02:35:14.600Z,25.45
2022-08-18T02:37:42.887Z,25.40
2022-08-18T02:40:15.110Z,25.37
2022-08-18T02:42:44.555Z,25.41
2022-08-18T02:45:13.217Z,25.37
2022-08-18T02:47:40.450Z,25.39
2022-08-18T02:50:11.006Z,25.37
2022-08-18T02:52:38.422Z,25.39
2022-08-18T02:55:08.137Z,25.39
2022-08-18T02:57:34.944Z,25.30
2022-08-18T03:00:02.124Z,25.25
2022-08-18T03:02:28.909Z,25.26
2022-08-18T03:04:55.767Z,25.28
2022-08-18T03:07:22.603Z,25.27
2022-08-18T03:09:49.502Z,25.29
2022-08-18T03:12:16.571Z,25.33
2022-08-18T03:14:43.533Z,25.34
2022-08-18T03:17:10.487Z,25.31
2022-08-18T03:19:37.394Z,25.21
2022-08-18T03:22:05.827Z,25.14
2022-08-18T03:24:52.704Z,25.16
2022-08-18T03:27:19.554Z,25.15
2022-08-18T03:29:46.322Z,25.23
2022-08-18T03:32:13.181Z,25.28
2022-08-18T03:34:40.048Z,25.26
2022-08-18T03:37:06.807Z,25.24
2022-08-18T03:39:33.644Z,25.23
2022-08-18T03:42:02.098Z,25.19
2022-08-18T03:44:38.673Z,25.11
2022-08-18T03:47:10.852Z,25.09
2022-08-18T03:49:38.620Z,25.09
2022-08-18T03:52:10.009Z,25.03
2022-08-18T03:54:38.809Z,25.00
2022-08-18T03:57:09.433Z,25.00
2022-08-18T03:59:36.463Z,25.06
2022-08-18T04:02:04.994Z,25.11
2022-08-18T04:04:32.194Z,25.08
2022-08-18T04:07:05.605Z,25.06
2022-08-18T04:09:34.460Z,25.04
2022-08-18T04:12:15.286Z,25.01
2022-08-18T04:14:49.130Z,24.97
2022-08-18T04:17:25.196Z,24.93
2022-08-18T04:19:56.662Z,24.87
2022-08-18T04:22:24.964Z,24.77
2022-08-18T04:24:52.220Z,24.74
2022-08-18T04:27:21.966Z,24.74
2022-08-18T04:29:49.304Z,24.78
2022-08-18T04:32:16.668Z,24.83
2022-08-18T04:34:43.500Z,24.76
2022-08-18T04:37:10.848Z,24.69
2022-08-18T04:39:38.228Z,24.68
2022-08-18T04:42:05.858Z,24.68
2022-08-18T04:44:32.742Z,24.68
2022-08-18T04:47:02.004Z,24.67
2022-08-18T04:49:30.251Z,24.66
2022-08-18T04:52:27.063Z,24.68
2022-08-18T04:55:05.598Z,24.76
2022-08-18T04:57:34.098Z,24.93
2022-08-18T05:00:02.953Z,25.10
2022-08-18T05:02:32.872Z,25.18
2022-08-18T05:05:01.278Z,25.10
2022-08-18T05:07:28.216Z,24.97
2022-08-18T05:09:55.430Z,24.95
2022-08-18T05:12:22.849Z,24.96
2022-08-18T05:14:53.802Z,24.92
2022-08-18T05:17:20.556Z,24.92
2022-08-18T05:19:47.606Z,24.84
2022-08-18T05:22:19.499Z,24.84
2022-08-18T05:24:55.327Z,24.91
2022-08-18T05:27:22.106Z,25.00
2022-08-18T05:29:51.586Z,25.15
2022-08-18T05:32:41.014Z,25.30
2022-08-18T05:35:23.019Z,25.42
2022-08-18T05:38:20.407Z,25.55
2022-08-18T05:41:13.737Z,25.64
2022-08-18T05:43:51.303Z,25.77
2022-08-18T05:46:26.025Z,25.91
2022-08-18T05:48:52.873Z,26.03
2022-08-18T05:51:33.715Z,26.12
2022-08-18T05:54:22.057Z,26.18
2022-08-18T05:56:53.713Z,26.30
2022-08-18T05:59:32.001Z,26.33
2022-08-18T06:02:23.729Z,26.35
2022-08-18T06:05:11.730Z,26.31
2022-08-18T06:07:46.895Z,26.36
2022-08-18T06:10:15.001Z,26.40
2022-08-18T06:12:51.182Z,26.45
2022-08-18T06:16:02.461Z,26.50
2022-08-18T06:19:25.709Z,26.51
2022-08-18T06:22:30.543Z,26.42
2022-08-18T06:25:16.444Z,26.41
2022-08-18T06:28:05.728Z,26.43
2022-08-18T06:30:57.638Z,26.40
2022-08-18T06:34:25.025Z,26.37
2022-08-18T06:36:58.785Z,26.32
2022-08-18T06:39:28.378Z,26.30
2022-08-18T06:41:55.199Z,26.29
2022-08-18T06:44:32.300Z,26.28
2022-08-18T06:47:15.406Z,26.32
2022-08-18T06:49:57.670Z,26.18
2022-08-18T06:52:34.470Z,26.09
2022-08-18T06:55:16.613Z,25.97
2022-08-18T06:58:00.330Z,25.83
2022-08-18T07:00:35.436Z,25.90
2022-08-18T07:03:16.841Z,25.74
2022-08-18T07:06:05.513Z,25.63
2022-08-18T07:08:40.103Z,25.52
2022-08-18T07:11:28.212Z,25.47
2022-08-18T07:14:16.454Z,25.38
2022-08-18T07:17:00.266Z,25.37
2022-08-18T07:19:32.165Z,25.48
2022-08-18T07:22:17.240Z,25.43
2022-08-18T07:24:49.204Z,25.46
2022-08-18T07:27:18.775Z,25.63
2022-08-18T07:30:15.472Z,25.70
2022-08-18T07:32:51.459Z,25.78
2022-08-18T07:35:37.603Z,25.84
2022-08-18T07:38:43.061Z,25.80
2022-08-18T07:41:24.086Z,25.77
2022-08-18T07:44:32.007Z,26.05
2022-08-18T07:47:15.051Z,26.41
2022-08-18T07:49:59.949Z,26.74
2022-08-18T07:52:48.526Z,27.20
2022-08-18T07:55:30.104Z,27.04
2022-08-18T07:58:28.304Z,26.99
2022-08-18T08:01:09.447Z,27.29
2022-08-18T08:03:59.263Z,27.27
2022-08-18T08:07:06.163Z,27.33
2022-08-18T08:10:20.963Z,27.33
2022-08-18T08:13:31.250Z,27.19
2022-08-18T08:16:16.110Z,27.11
2022-08-18T08:19:59.479Z,27.18
2022-08-18T08:22:38.307Z,27.14
2022-08-18T08:25:47.650Z,27.19
2022-08-18T08:28:39.449Z,27.17
2022-08-18T08:31:36.594Z,27.20
2022-08-18T08:34:14.185Z,27.57
2022-08-18T08:36:46.166Z,27.50
2022-08-18T08:39:36.148Z,27.43
2022-08-18T08:42:30.402Z,27.40
2022-08-18T08:45:10.699Z,27.39
2022-08-18T08:47:58.513Z,27.48
2022-08-18T08:50:41.143Z,27.62
2022-08-18T08:53:38.905Z,27.70
2022-08-18T08:56:16.568Z,27.59
2022-08-18T08:58:51.454Z,27.52
2022-08-18T09:01:46.932Z,27.56
2022-08-18T09:04:34.391Z,27.51
2022-08-18T09:07:40.802Z,27.36
2022-08-18T09:10:20.837Z,27.35
2022-08-18T09:12:53.655Z,27.41
2022-08-18T09:16:00.523Z,27.45
2022-08-18T09:18:54.003Z,27.45
2022-08-18T09:21:58.258Z,27.43
2022-08-18T09:24:31.594Z,27.46
2022-08-18T09:27:04.186Z,27.46
2022-08-18T09:29:55.834Z,27.46
2022-08-18T09:32:24.227Z,27.45
2022-08-18T09:35:54.830Z,27.31
2022-08-18T09:38:48.850Z,27.31
2022-08-18T09:41:50.891Z,27.13
2022-08-18T09:44:48.560Z,27.09
2022-08-18T09:47:21.723Z,27.05
2022-08-18T09:54:13.530Z,26.91
2022-08-18T09:56:55.666Z,26.91
2022-08-18T09:59:35.042Z,26.82
2022-08-18T10:02:33.759Z,26.74
2022-08-18T10:05:15.666Z,26.82
2022-08-18T10:08:01.423Z,26.84
2022-08-18T10:11:09.458Z,26.86
2022-08-18T10:14:04.014Z,26.79
2022-08-18T10:23:10.637Z,26.85
2022-08-18T10:25:47.528Z,26.85
2022-08-18T10:28:51.935Z,26.86
2022-08-18T10:31:19.026Z,26.81
2022-08-18T10:34:16.610Z,26.69
2022-08-18T10:36:53.147Z,26.79
2022-08-18T10:39:44.914Z,26.85
2022-08-18T10:42:31.010Z,26.83
2022-08-18T10:45:24.599Z,26.88
2022-08-18T10:48:20.060Z,26.94
2022-08-18T10:51:27.427Z,26.83
2022-08-18T10:54:11.829Z,26.72
2022-08-18T10:56:54.369Z,26.74
2022-08-18T10:59:50.665Z,26.77
2022-08-18T11:02:41.543Z,26.78
2022-08-18T11:05:13.435Z,26.76
2022-08-18T11:07:44.950Z,26.86
2022-08-18T11:11:06.218Z,26.98
2022-08-18T11:14:34.019Z,27.01
2022-08-18T11:17:21.089Z,27.03
2022-08-18T11:19:50.786Z,27.09
2022-08-18T11:22:34.451Z,27.14
2022-08-18T11:25:18.672Z,27.17
2022-08-18T11:27:48.744Z,27.18
2022-08-18T11:30:17.670Z,27.20
2022-08-18T11:32:52.243Z,27.24
2022-08-18T11:35:32.593Z,27.25
2022-08-18T11:38:05.239Z,27.26
2022-08-18T11:43:41.145Z,27.30
2022-08-18T11:46:32.003Z,27.33
2022-08-18T11:49:14.049Z,27.33
2022-08-18T11:52:02.239Z,27.35
2022-08-18T11:54:50.929Z,27.38
2022-08-18T11:57:46.155Z,27.38
2022-08-18T12:00:35.783Z,27.39
2022-08-18T12:03:28.558Z,27.38
2022-08-18T12:06:27.944Z,27.39
2022-08-18T12:09:02.768Z,27.34
2022-08-18T12:11:41.229Z,27.35
2022-08-18T12:17:08.521Z,27.38
2022-08-18T12:19:35.408Z,27.39
2022-08-18T12:22:17.860Z,27.41
2022-08-18T12:24:46.456Z,27.44
2022-08-18T12:27:21.664Z,27.45
2022-08-18T12:29:50.794Z,27.45
2022-08-18T12:32:56.033Z,27.45
2022-08-18T12:35:09.124Z,27.45
2022-08-18T12:40:25.779Z,27.40
2022-08-18T12:42:55.627Z,27.20
2022-08-18T12:45:23.557Z,27.16
2022-08-18T12:47:51.710Z,27.07
2022-08-18T12:50:19.700Z,27.06
2022-08-18T12:52:46.772Z,27.04
2022-08-18T13:00:57.576Z,26.99
2022-08-18T13:03:24.653Z,26.94
2022-08-18T13:05:54.590Z,26.81
2022-08-18T13:08:30.458Z,26.78
2022-08-18T13:11:14.640Z,26.88
2022-08-18T13:13:42.734Z,26.95
2022-08-18T13:16:16.352Z,26.94
2022-08-18T13:18:57.763Z,26.88
2022-08-18T13:21:26.573Z,26.94
2022-08-18T13:24:06.232Z,26.92
2022-08-18T13:26:42.274Z,26.82
2022-08-18T13:29:14.214Z,26.90
2022-08-18T13:31:41.091Z,27.01
2022-08-18T13:34:20.516Z,26.88
2022-08-18T13:36:48.278Z,26.77
2022-08-18T13:39:19.091Z,26.78
2022-08-18T13:41:49.243Z,26.91
2022-08-18T13:44:18.638Z,26.93
2022-08-18T13:46:48.222Z,26.93
2022-08-18T13:49:23.647Z,26.96
2022-08-18T13:52:00.322Z,26.89
2022-08-18T13:54:34.102Z,27.03
2022-08-18T13:57:03.759Z,26.90
2022-08-18T13:59:33.048Z,26.83
2022-08-18T14:02:09.547Z,26.72
2022-08-18T14:04:38.449Z,26.69
2022-08-18T14:07:10.998Z,26.74
2022-08-18T14:09:39.313Z,26.73
2022-08-18T14:12:23.131Z,26.66
2022-08-18T14:14:55.262Z,26.66
2022-08-18T14:17:27.126Z,26.61
2022-08-18T14:20:15.222Z,26.50
2022-08-18T14:23:09.463Z,26.68
2022-08-18T14:25:55.002Z,26.76
2022-08-18T14:28:24.727Z,26.89
2022-08-18T14:30:54.428Z,26.90
2022-08-18T14:33:49.624Z,26.92
2022-08-18T14:36:14.847Z,27.04
2022-08-18T14:38:42.843Z,26.91
2022-08-18T14:41:14.700Z,26.88
2022-08-18T14:44:10.315Z,26.83
2022-08-18T14:46:32.704Z,26.81
2022-08-18T14:49:04.078Z,26.83
2022-08-18T14:51:33.410Z,26.79
2022-08-18T14:54:01.565Z,26.75
2022-08-18T14:56:33.600Z,26.75
2022-08-18T14:59:11.188Z,26.89
2022-08-18T15:01:42.547Z,27.01
2022-08-18T15:04:18.332Z,26.98
2022-08-18T15:06:55.961Z,26.95
2022-08-18T15:09:30.271Z,26.96
2022-08-18T15:11:59.258Z,26.96
2022-08-18T15:14:33.543Z,26.88
2022-08-18T15:17:11.976Z,26.85
2022-08-18T15:19:59.029Z,26.91
2022-08-18T15:22:47.798Z,26.85
2022-08-18T15:25:34.382Z,26.76
2022-08-18T15:28:01.690Z,26.82
2022-08-18T15:30:29.182Z,26.81
2022-08-18T15:32:58.918Z,26.83
2022-08-18T15:35:25.994Z,26.81
2022-08-18T15:37:54.660Z,26.81
2022-08-18T15:40:30.663Z,26.81
2022-08-18T15:43:09.696Z,26.80
2022-08-18T15:45:56.210Z,26.79
2022-08-18T15:48:27.833Z,26.76
2022-08-18T15:50:55.886Z,26.78
2022-08-18T15:53:29.790Z,26.74
2022-08-18T15:55:57.837Z,26.70
2022-08-18T15:58:26.868Z,26.72
2022-08-18T16:00:58.928Z,26.72
2022-08-18T16:03:31.632Z,26.76
2022-08-18T16:06:00.155Z,26.72
2022-08-18T16:08:28.068Z,26.70
2022-08-18T16:10:55.508Z,26.72
2022-08-18T16:13:26.332Z,26.74
2022-08-18T16:15:55.266Z,26.69
2022-08-18T16:18:22.159Z,26.67
2022-08-18T16:20:50.703Z,26.66
2022-08-18T16:23:23.646Z,26.68
2022-08-18T16:25:50.582Z,26.65
2022-08-18T16:28:17.533Z,26.66
2022-08-18T16:30:47.045Z,26.65
2022-08-18T16:33:13.926Z,26.67
2022-08-18T16:35:45.256Z,26.67
2022-08-18T16:38:12.433Z,26.62
2022-08-18T16:40:41.064Z,26.53
2022-08-18T16:43:08.851Z,26.55
2022-08-18T16:45:42.428Z,26.57
2022-08-18T16:48:13.354Z,26.56
2022-08-18T16:50:45.283Z,26.60
2022-08-18T16:53:12.068Z,26.60
2022-08-18T16:55:38.987Z,26.60
2022-08-18T16:58:24.451Z,26.57
2022-08-18T17:01:14.924Z,26.56
2022-08-18T17:04:04.195Z,26.56
2022-08-18T17:06:47.470Z,26.59
2022-08-18T17:09:15.856Z,26.70
2022-08-18T17:11:51.145Z,26.72
2022-08-18T17:14:21.178Z,26.75
2022-08-18T17:16:54.806Z,26.75
2022-08-18T17:19:26.155Z,26.80
2022-08-18T17:21:53.807Z,26.65
2022-08-18T17:24:27.696Z,26.62
2022-08-18T17:27:12.074Z,26.61
2022-08-18T17:30:20.069Z,26.65
2022-08-18T17:33:06.011Z,26.62
2022-08-18T17:35:41.406Z,26.59
2022-08-18T17:38:54.107Z,26.59
2022-08-18T17:41:21.206Z,26.57
2022-08-18T17:43:48.119Z,26.59
2022-08-18T17:46:29.323Z,26.58
2022-08-18T17:49:12.901Z,26.64
2022-08-18T17:51:48.910Z,26.64
2022-08-18T17:54:36.375Z,26.72
2022-08-18T17:57:34.446Z,26.63
2022-08-18T18:00:17.225Z,26.58
2022-08-18T18:02:47.524Z,26.67
2022-08-18T18:05:20.398Z,26.66
2022-08-18T18:07:52.902Z,26.69
2022-08-18T18:10:51.005Z,26.58
2022-08-18T18:13:23.936Z,26.38
2022-08-18T18:15:56.359Z,26.23
2022-08-18T18:18:32.211Z,26.06
2022-08-18T18:21:15.506Z,25.98
2022-08-18T18:24:11.031Z,25.96
2022-08-18T18:26:42.784Z,26.01
2022-08-18T18:29:37.717Z,26.11
2022-08-18T18:32:26.163Z,26.17
2022-08-18T18:35:19.839Z,25.99
2022-08-18T18:38:01.346Z,25.97
2022-08-18T18:41:01.933Z,25.96
2022-08-18T18:43:43.488Z,25.90
2022-08-18T18:46:27.154Z,25.99
2022-08-18T18:49:18.880Z,25.96
2022-08-18T18:52:37.167Z,25.92
2022-08-18T18:55:12.973Z,25.96
2022-08-18T18:57:57.469Z,25.88
2022-08-18T19:00:53.799Z,25.91
2022-08-18T19:03:42.422Z,25.93
2022-08-18T19:06:31.449Z,25.92
2022-08-18T19:09:17.149Z,25.82
2022-08-18T19:12:34.266Z,25.73
2022-08-18T19:15:10.596Z,25.74
2022-08-18T19:18:08.465Z,25.68
2022-08-18T19:22:04.974Z,25.71
2022-08-18T19:23:59.605Z,25.80
2022-08-18T19:26:39.426Z,25.71
2022-08-18T19:29:14.677Z,25.70
2022-08-18T19:31:55.379Z,25.75
2022-08-18T19:34:33.486Z,25.70
2022-08-18T19:37:27.246Z,25.67
2022-08-18T19:40:42.753Z,25.70
2022-08-18T19:44:05.374Z,25.74
2022-08-18T19:46:45.161Z,25.72
2022-08-18T19:49:47.159Z,25.66
2022-08-18T19:52:55.989Z,25.74
2022-08-18T19:56:21.693Z,25.71
2022-08-18T19:59:48.667Z,25.60
2022-08-18T20:02:42.449Z,25.62
2022-08-18T20:05:55.003Z,25.61
2022-08-18T20:08:51.368Z,25.74
2022-08-18T20:11:45.263Z,25.62
2022-08-18T20:14:18.993Z,25.46
2022-08-18T20:17:22.992Z,25.47
2022-08-18T20:20:15.956Z,25.32
2022-08-18T20:22:46.644Z,25.18
2022-08-18T20:27:57.849Z,25.17
2022-08-18T20:30:27.442Z,25.19
2022-08-18T20:33:15.035Z,25.24
2022-08-18T20:36:30.496Z,25.25
2022-08-18T20:39:00.976Z,25.25
2022-08-18T20:41:50.504Z,25.19
2022-08-18T20:44:48.213Z,25.17
2022-08-18T20:47:28.414Z,25.11
2022-08-18T20:50:35.509Z,25.11
2022-08-18T20:53:22.490Z,25.09
2022-08-18T20:56:43.539Z,24.96
2022-08-18T20:59:21.227Z,24.98
2022-08-18T21:02:23.039Z,24.88
2022-08-18T21:05:03.924Z,24.78
2022-08-18T21:07:38.800Z,24.84
2022-08-18T21:10:28.693Z,24.76
2022-08-18T21:13:04.670Z,24.84
2022-08-18T21:15:39.008Z,25.03
2022-08-18T21:18:18.673Z,25.24
2022-08-18T21:20:50.001Z,25.14
2022-08-18T21:23:30.721Z,25.02
2022-08-18T21:26:16.142Z,24.88
2022-08-18T21:28:54.855Z,24.66
2022-08-18T21:31:44.213Z,24.84
2022-08-18T21:34:41.748Z,25.04
2022-08-18T21:37:16.035Z,25.17
2022-08-18T21:40:00.102Z,25.31
2022-08-18T21:42:45.968Z,25.33
2022-08-18T21:45:23.270Z,25.37
2022-08-18T21:48:04.806Z,25.34
2022-08-18T21:50:35.059Z,25.34
2022-08-18T21:53:06.765Z,25.50
2022-08-18T21:55:45.280Z,25.57
2022-08-18T21:58:18.515Z,25.60
2022-08-18T22:01:24.579Z,25.53
2022-08-18T22:04:27.873Z,25.53
2022-08-18T22:07:02.466Z,25.58
2022-08-18T22:09:53.109Z,25.45
2022-08-18T22:12:53.279Z,25.44
2022-08-18T22:15:26.660Z,25.32
2022-08-18T22:18:27.282Z,25.27
2022-08-18T22:21:03.148Z,25.29
2022-08-18T22:24:04.600Z,25.02
2022-08-18T22:26:41.322Z,24.75
2022-08-18T22:29:32.527Z,24.68
2022-08-18T22:32:02.313Z,24.62
2022-08-18T22:34:34.315Z,24.65
2022-08-18T22:37:27.038Z,25.01
2022-08-18T22:39:59.876Z,25.26
2022-08-18T22:42:33.024Z,25.34
2022-08-18T22:45:04.978Z,25.30
2022-08-18T22:47:42.914Z,25.33
2022-08-18T22:50:13.145Z,25.31
2022-08-18T22:52:49.457Z,25.38
2022-08-18T22:55:21.697Z,25.40
2022-08-18T22:57:54.770Z,25.08
2022-08-18T23:00:23.144Z,25.00
2022-08-18T23:02:51.548Z,24.82
2022-08-18T23:05:18.482Z,24.65
2022-08-18T23:07:46.041Z,24.54
2022-08-18T23:10:16.365Z,24.56
2022-08-18T23:12:46.734Z,24.54
2022-08-18T23:15:16.758Z,24.39
2022-08-18T23:17:44.044Z,24.36
2022-08-18T23:20:18.223Z,24.59
2022-08-18T23:22:47.955Z,24.57
2022-08-18T23:25:15.620Z,24.57
2022-08-18T23:27:42.844Z,24.45
2022-08-18T23:30:10.874Z,24.38
2022-08-18T23:32:37.799Z,24.36
2022-08-18T23:35:05.374Z,24.13
2022-08-18T23:37:32.447Z,24.11
2022-08-18T23:39:59.693Z,24.03
2022-08-18T23:42:26.813Z,23.95
2022-08-18T23:44:53.874Z,23.97
2022-08-18T23:47:20.831Z,24.01
2022-08-18T23:49:48.416Z,24.10
2022-08-18T23:52:15.899Z,24.18
2022-08-18T23:54:45.357Z,24.08
2022-08-18T23:57:12.186Z,24.07
2022-08-18T23:59:38.950Z,23.97
